sensor_id;sensor_type;location;lat;lon;timestamp;P1;durP1;ratioP1;P2;durP2;ratioP2
2474;SDS011;1248;48.694;10.160;2023-03-24T00:02:08;14.80;;;8.50;;
2474;SDS011;1248;48.694;10.160;2023-03-24T00:04:35;9.00;;;6.30;;
2474;SDS011;1248;48.694;10.160;2023-03-24T00:07:07;8.10;;;7.30;;
2474;SDS011;1248;48.694;10.160;2023-03-24T00:09:39;9.40;;;7.07;;
2474;SDS011;1248;48.694;10.160;2023-03-24T00:12:06;10.03;;;6.33;;
2474;SDS011;1248;48.694;10.160;2023-03-24T00:14:35;6.60;;;5.97;;
2474;SDS011;1248;48.694;10.160;2023-03-24T00:17:04;6.57;;;5.60;;
2474;SDS011;1248;48.694;10.160;2023-03-24T00:19:31;8.73;;;6.77;;
2474;SDS011;1248;48.694;10.160;2023-03-24T00:22:02;7.30;;;6.50;;
2474;SDS011;1248;48.694;10.160;2023-03-24T00:24:30;9.13;;;7.10;;
2474;SDS011;1248;48.694;10.160;2023-03-24T00:26:57;11.50;;;7.83;;
2474;SDS011;1248;48.694;10.160;2023-03-24T00:29:25;30.43;;;9.07;;
2474;SDS011;1248;48.694;10.160;2023-03-24T00:31:54;9.23;;;7.00;;
2474;SDS011;1248;48.694;10.160;2023-03-24T00:34:21;10.50;;;7.50;;
2474;SDS011;1248;48.694;10.160;2023-03-24T00:36:48;9.60;;;7.27;;
2474;SDS011;1248;48.694;10.160;2023-03-24T00:39:16;12.70;;;6.63;;
2474;SDS011;1248;48.694;10.160;2023-03-24T00:41:43;12.50;;;7.90;;
2474;SDS011;1248;48.694;10.160;2023-03-24T00:44:12;7.47;;;6.67;;
2474;SDS011;1248;48.694;10.160;2023-03-24T00:46:42;8.20;;;7.27;;
2474;SDS011;1248;48.694;10.160;2023-03-24T00:49:11;8.17;;;7.37;;
2474;SDS011;1248;48.694;10.160;2023-03-24T00:51:40;10.20;;;7.80;;
2474;SDS011;1248;48.694;10.160;2023-03-24T00:54:10;11.50;;;7.07;;
2474;SDS011;1248;48.694;10.160;2023-03-24T00:56:39;7.80;;;7.03;;
2474;SDS011;1248;48.694;10.160;2023-03-24T00:59:08;12.30;;;7.77;;
2474;SDS011;1248;48.694;10.160;2023-03-24T01:01:35;10.50;;;8.20;;
2474;SDS011;1248;48.694;10.160;2023-03-24T01:04:05;9.73;;;7.13;;
2474;SDS011;1248;48.694;10.160;2023-03-24T01:06:34;10.00;;;7.77;;
2474;SDS011;1248;48.694;10.160;2023-03-24T01:09:02;13.20;;;8.43;;
2474;SDS011;1248;48.694;10.160;2023-03-24T01:11:32;9.30;;;8.33;;
2474;SDS011;1248;48.694;10.160;2023-03-24T01:14:02;11.17;;;8.03;;
2474;SDS011;1248;48.694;10.160;2023-03-24T01:16:29;10.13;;;7.97;;
2474;SDS011;1248;48.694;10.160;2023-03-24T01:18:56;12.80;;;8.90;;
2474;SDS011;1248;48.694;10.160;2023-03-24T01:21:24;13.10;;;9.87;;
2474;SDS011;1248;48.694;10.160;2023-03-24T01:23:52;13.00;;;9.87;;
2474;SDS011;1248;48.694;10.160;2023-03-24T01:26:19;13.20;;;9.37;;
2474;SDS011;1248;48.694;10.160;2023-03-24T01:28:46;10.10;;;7.67;;
2474;SDS011;1248;48.694;10.160;2023-03-24T01:31:13;10.80;;;8.53;;
2474;SDS011;1248;48.694;10.160;2023-03-24T01:33:41;13.37;;;7.97;;
2474;SDS011;1248;48.694;10.160;2023-03-24T01:36:08;12.60;;;8.20;;
2474;SDS011;1248;48.694;10.160;2023-03-24T01:38:37;11.83;;;8.07;;
2474;SDS011;1248;48.694;10.160;2023-03-24T01:41:06;10.50;;;8.93;;
2474;SDS011;1248;48.694;10.160;2023-03-24T01:43:33;11.87;;;9.37;;
2474;SDS011;1248;48.694;10.160;2023-03-24T01:46:12;10.60;;;9.17;;
2474;SDS011;1248;48.694;10.160;2023-03-24T01:48:42;11.50;;;9.20;;
2474;SDS011;1248;48.694;10.160;2023-03-24T01:51:14;12.40;;;8.90;;
2474;SDS011;1248;48.694;10.160;2023-03-24T01:53:44;15.77;;;9.00;;
2474;SDS011;1248;48.694;10.160;2023-03-24T01:56:13;25.77;;;16.87;;
2474;SDS011;1248;48.694;10.160;2023-03-24T01:58:42;23.30;;;14.93;;
2474;SDS011;1248;48.694;10.160;2023-03-24T02:01:12;22.87;;;14.60;;
2474;SDS011;1248;48.694;10.160;2023-03-24T02:03:40;17.10;;;13.60;;
2474;SDS011;1248;48.694;10.160;2023-03-24T02:06:07;15.43;;;11.10;;
2474;SDS011;1248;48.694;10.160;2023-03-24T02:08:36;17.67;;;12.23;;
2474;SDS011;1248;48.694;10.160;2023-03-24T02:11:07;14.07;;;10.57;;
2474;SDS011;1248;48.694;10.160;2023-03-24T02:13:35;14.33;;;11.50;;
2474;SDS011;1248;48.694;10.160;2023-03-24T02:16:06;20.20;;;12.50;;
2474;SDS011;1248;48.694;10.160;2023-03-24T02:18:43;14.47;;;10.50;;
2474;SDS011;1248;48.694;10.160;2023-03-24T02:27:13;13.57;;;10.53;;
2474;SDS011;1248;48.694;10.160;2023-03-24T02:29:58;13.23;;;10.80;;
2474;SDS011;1248;48.694;10.160;2023-03-24T02:36:01;13.10;;;8.90;;
2474;SDS011;1248;48.694;10.160;2023-03-24T02:42:05;12.50;;;9.77;;
2474;SDS011;1248;48.694;10.160;2023-03-24T02:44:37;12.50;;;9.37;;
2474;SDS011;1248;48.694;10.160;2023-03-24T02:47:09;11.60;;;8.80;;
2474;SDS011;1248;48.694;10.160;2023-03-24T02:49:40;18.30;;;9.57;;
2474;SDS011;1248;48.694;10.160;2023-03-24T02:52:12;10.33;;;7.10;;
2474;SDS011;1248;48.694;10.160;2023-03-24T02:54:45;10.80;;;8.20;;
2474;SDS011;1248;48.694;10.160;2023-03-24T02:57:14;11.30;;;9.83;;
2474;SDS011;1248;48.694;10.160;2023-03-24T02:59:46;13.60;;;9.33;;
2474;SDS011;1248;48.694;10.160;2023-03-24T03:02:15;10.33;;;8.97;;
2474;SDS011;1248;48.694;10.160;2023-03-24T03:04:46;12.27;;;8.23;;
2474;SDS011;1248;48.694;10.160;2023-03-24T03:07:17;9.17;;;8.13;;
2474;SDS011;1248;48.694;10.160;2023-03-24T03:09:51;11.57;;;8.40;;
2474;SDS011;1248;48.694;10.160;2023-03-24T03:12:21;11.00;;;8.83;;
2474;SDS011;1248;48.694;10.160;2023-03-24T03:14:50;11.60;;;8.90;;
2474;SDS011;1248;48.694;10.160;2023-03-24T03:17:19;10.40;;;7.83;;
2474;SDS011;1248;48.694;10.160;2023-03-24T03:19:49;9.97;;;8.83;;
2474;SDS011;1248;48.694;10.160;2023-03-24T03:22:20;8.93;;;7.40;;
2474;SDS011;1248;48.694;10.160;2023-03-24T03:24:51;10.87;;;8.97;;
2474;SDS011;1248;48.694;10.160;2023-03-24T03:27:21;12.33;;;9.47;;
2474;SDS011;1248;48.694;10.160;2023-03-24T03:29:52;9.77;;;8.57;;
2474;SDS011;1248;48.694;10.160;2023-03-24T03:32:22;9.00;;;8.10;;
2474;SDS011;1248;48.694;10.160;2023-03-24T03:34:54;10.17;;;9.17;;
2474;SDS011;1248;48.694;10.160;2023-03-24T03:37:23;11.40;;;9.00;;
2474;SDS011;1248;48.694;10.160;2023-03-24T03:39:55;11.57;;;9.67;;
2474;SDS011;1248;48.694;10.160;2023-03-24T03:42:23;10.27;;;9.10;;
2474;SDS011;1248;48.694;10.160;2023-03-24T03:44:50;10.80;;;9.20;;
2474;SDS011;1248;48.694;10.160;2023-03-24T03:47:17;18.03;;;9.83;;
2474;SDS011;1248;48.694;10.160;2023-03-24T03:49:45;13.27;;;9.50;;
2474;SDS011;1248;48.694;10.160;2023-03-24T03:52:13;10.70;;;9.60;;
2474;SDS011;1248;48.694;10.160;2023-03-24T03:54:40;11.30;;;9.60;;
2474;SDS011;1248;48.694;10.160;2023-03-24T03:57:10;13.47;;;10.50;;
2474;SDS011;1248;48.694;10.160;2023-03-24T03:59:39;12.40;;;10.03;;
2474;SDS011;1248;48.694;10.160;2023-03-24T04:02:10;11.70;;;9.17;;
2474;SDS011;1248;48.694;10.160;2023-03-24T04:04:55;11.43;;;9.33;;
2474;SDS011;1248;48.694;10.160;2023-03-24T04:07:31;12.37;;;10.40;;
2474;SDS011;1248;48.694;10.160;2023-03-24T04:10:05;9.70;;;8.70;;
2474;SDS011;1248;48.694;10.160;2023-03-24T04:12:44;15.13;;;9.20;;
2474;SDS011;1248;48.694;10.160;2023-03-24T04:15:28;12.07;;;8.70;;
2474;SDS011;1248;48.694;10.160;2023-03-24T04:18:05;13.73;;;9.57;;
2474;SDS011;1248;48.694;10.160;2023-03-24T04:20:39;13.80;;;9.33;;
2474;SDS011;1248;48.694;10.160;2023-03-24T04:23:13;13.73;;;9.30;;
2474;SDS011;1248;48.694;10.160;2023-03-24T04:25:52;10.90;;;8.13;;
2474;SDS011;1248;48.694;10.160;2023-03-24T04:28:31;11.60;;;8.97;;
2474;SDS011;1248;48.694;10.160;2023-03-24T04:31:02;11.33;;;9.60;;
2474;SDS011;1248;48.694;10.160;2023-03-24T04:33:33;12.80;;;8.57;;
2474;SDS011;1248;48.694;10.160;2023-03-24T04:36:05;12.50;;;9.20;;
2474;SDS011;1248;48.694;10.160;2023-03-24T04:38:41;9.97;;;8.97;;
2474;SDS011;1248;48.694;10.160;2023-03-24T04:41:10;11.67;;;9.00;;
2474;SDS011;1248;48.694;10.160;2023-03-24T04:43:38;10.80;;;8.67;;
2474;SDS011;1248;48.694;10.160;2023-03-24T04:46:06;13.00;;;9.50;;
2474;SDS011;1248;48.694;10.160;2023-03-24T04:48:33;12.93;;;9.40;;
2474;SDS011;1248;48.694;10.160;2023-03-24T04:51:01;9.87;;;8.87;;
2474;SDS011;1248;48.694;10.160;2023-03-24T04:53:29;11.67;;;8.73;;
2474;SDS011;1248;48.694;10.160;2023-03-24T04:55:58;12.60;;;8.83;;
2474;SDS011;1248;48.694;10.160;2023-03-24T04:58:29;13.00;;;9.80;;
2474;SDS011;1248;48.694;10.160;2023-03-24T05:00:57;14.23;;;9.17;;
2474;SDS011;1248;48.694;10.160;2023-03-24T05:03:24;12.97;;;8.57;;
2474;SDS011;1248;48.694;10.160;2023-03-24T05:05:51;11.57;;;8.73;;
2474;SDS011;1248;48.694;10.160;2023-03-24T05:08:19;20.60;;;11.03;;
2474;SDS011;1248;48.694;10.160;2023-03-24T05:10:46;9.67;;;8.60;;
2474;SDS011;1248;48.694;10.160;2023-03-24T05:13:13;12.53;;;9.20;;
2474;SDS011;1248;48.694;10.160;2023-03-24T05:15:41;12.60;;;8.33;;
2474;SDS011;1248;48.694;10.160;2023-03-24T05:18:09;10.80;;;7.37;;
2474;SDS011;1248;48.694;10.160;2023-03-24T05:20:36;9.00;;;8.07;;
2474;SDS011;1248;48.694;10.160;2023-03-24T05:23:03;13.43;;;7.33;;
2474;SDS011;1248;48.694;10.160;2023-03-24T05:25:31;10.07;;;8.90;;
2474;SDS011;1248;48.694;10.160;2023-03-24T05:27:58;12.37;;;9.37;;
2474;SDS011;1248;48.694;10.160;2023-03-24T05:30:25;10.37;;;8.60;;
2474;SDS011;1248;48.694;10.160;2023-03-24T05:32:52;11.50;;;9.30;;
2474;SDS011;1248;48.694;10.160;2023-03-24T05:35:20;11.40;;;9.60;;
2474;SDS011;1248;48.694;10.160;2023-03-24T05:37:49;12.20;;;8.67;;
2474;SDS011;1248;48.694;10.160;2023-03-24T05:40:16;10.60;;;8.50;;
2474;SDS011;1248;48.694;10.160;2023-03-24T05:42:43;13.30;;;9.33;;
2474;SDS011;1248;48.694;10.160;2023-03-24T05:45:10;12.17;;;8.70;;
2474;SDS011;1248;48.694;10.160;2023-03-24T05:47:37;8.50;;;7.47;;
2474;SDS011;1248;48.694;10.160;2023-03-24T05:50:05;13.10;;;7.83;;
2474;SDS011;1248;48.694;10.160;2023-03-24T05:52:33;9.57;;;7.83;;
2474;SDS011;1248;48.694;10.160;2023-03-24T05:55:01;9.90;;;7.90;;
2474;SDS011;1248;48.694;10.160;2023-03-24T05:57:28;9.60;;;8.60;;
2474;SDS011;1248;48.694;10.160;2023-03-24T05:59:55;8.77;;;7.53;;
2474;SDS011;1248;48.694;10.160;2023-03-24T06:02:23;16.83;;;10.10;;
2474;SDS011;1248;48.694;10.160;2023-03-24T06:04:50;9.10;;;7.60;;
2474;SDS011;1248;48.694;10.160;2023-03-24T06:07:17;12.47;;;7.90;;
2474;SDS011;1248;48.694;10.160;2023-03-24T06:09:46;9.40;;;6.30;;
2474;SDS011;1248;48.694;10.160;2023-03-24T06:12:15;7.50;;;6.13;;
2474;SDS011;1248;48.694;10.160;2023-03-24T06:14:42;7.80;;;6.33;;
2474;SDS011;1248;48.694;10.160;2023-03-24T06:17:10;7.40;;;6.33;;
2474;SDS011;1248;48.694;10.160;2023-03-24T06:19:39;7.07;;;6.37;;
2474;SDS011;1248;48.694;10.160;2023-03-24T06:22:14;6.70;;;6.00;;
2474;SDS011;1248;48.694;10.160;2023-03-24T06:24:42;17.23;;;7.40;;
2474;SDS011;1248;48.694;10.160;2023-03-24T06:27:10;8.47;;;6.67;;
2474;SDS011;1248;48.694;10.160;2023-03-24T06:29:38;10.80;;;5.87;;
2474;SDS011;1248;48.694;10.160;2023-03-24T06:32:07;12.03;;;5.77;;
2474;SDS011;1248;48.694;10.160;2023-03-24T06:34:34;7.73;;;6.00;;
2474;SDS011;1248;48.694;10.160;2023-03-24T06:37:01;7.90;;;5.80;;
2474;SDS011;1248;48.694;10.160;2023-03-24T06:39:28;10.27;;;6.57;;
2474;SDS011;1248;48.694;10.160;2023-03-24T06:41:56;6.40;;;5.27;;
2474;SDS011;1248;48.694;10.160;2023-03-24T06:44:24;7.13;;;5.40;;
2474;SDS011;1248;48.694;10.160;2023-03-24T06:46:51;8.40;;;6.03;;
2474;SDS011;1248;48.694;10.160;2023-03-24T06:49:18;7.63;;;4.37;;
2474;SDS011;1248;48.694;10.160;2023-03-24T06:51:45;3.83;;;3.43;;
2474;SDS011;1248;48.694;10.160;2023-03-24T06:54:12;6.33;;;3.13;;
2474;SDS011;1248;48.694;10.160;2023-03-24T06:56:40;2.23;;;2.03;;
2474;SDS011;1248;48.694;10.160;2023-03-24T06:59:07;6.50;;;3.50;;
2474;SDS011;1248;48.694;10.160;2023-03-24T07:01:36;4.10;;;3.50;;
2474;SDS011;1248;48.694;10.160;2023-03-24T07:04:04;5.20;;;3.10;;
2474;SDS011;1248;48.694;10.160;2023-03-24T07:06:31;5.10;;;2.57;;
2474;SDS011;1248;48.694;10.160;2023-03-24T07:08:59;3.60;;;3.20;;
2474;SDS011;1248;48.694;10.160;2023-03-24T07:11:26;3.10;;;2.80;;
2474;SDS011;1248;48.694;10.160;2023-03-24T07:13:53;4.00;;;2.30;;
2474;SDS011;1248;48.694;10.160;2023-03-24T07:16:21;3.17;;;2.80;;
2474;SDS011;1248;48.694;10.160;2023-03-24T07:18:49;6.60;;;3.67;;
2474;SDS011;1248;48.694;10.160;2023-03-24T07:21:16;3.70;;;3.13;;
2474;SDS011;1248;48.694;10.160;2023-03-24T07:23:43;3.63;;;2.80;;
2474;SDS011;1248;48.694;10.160;2023-03-24T07:26:10;5.23;;;2.90;;
2474;SDS011;1248;48.694;10.160;2023-03-24T07:28:37;3.80;;;2.80;;
2474;SDS011;1248;48.694;10.160;2023-03-24T07:31:05;3.30;;;3.00;;
2474;SDS011;1248;48.694;10.160;2023-03-24T07:33:35;5.40;;;3.40;;
2474;SDS011;1248;48.694;10.160;2023-03-24T07:36:04;5.50;;;3.20;;
2474;SDS011;1248;48.694;10.160;2023-03-24T07:38:33;3.77;;;3.20;;
2474;SDS011;1248;48.694;10.160;2023-03-24T07:41:00;3.50;;;2.80;;
2474;SDS011;1248;48.694;10.160;2023-03-24T07:43:27;7.13;;;3.60;;
2474;SDS011;1248;48.694;10.160;2023-03-24T07:45:54;5.87;;;4.13;;
2474;SDS011;1248;48.694;10.160;2023-03-24T07:48:21;3.50;;;2.90;;
2474;SDS011;1248;48.694;10.160;2023-03-24T07:50:48;4.43;;;3.70;;
2474;SDS011;1248;48.694;10.160;2023-03-24T07:53:16;4.83;;;3.83;;
2474;SDS011;1248;48.694;10.160;2023-03-24T07:55:44;12.20;;;4.97;;
2474;SDS011;1248;48.694;10.160;2023-03-24T07:58:12;7.67;;;6.13;;
2474;SDS011;1248;48.694;10.160;2023-03-24T08:00:39;8.63;;;5.97;;
2474;SDS011;1248;48.694;10.160;2023-03-24T08:03:08;7.33;;;6.37;;
2474;SDS011;1248;48.694;10.160;2023-03-24T08:05:38;7.30;;;6.60;;
2474;SDS011;1248;48.694;10.160;2023-03-24T08:08:06;9.40;;;5.80;;
2474;SDS011;1248;48.694;10.160;2023-03-24T08:10:34;9.70;;;6.47;;
2474;SDS011;1248;48.694;10.160;2023-03-24T08:13:02;7.83;;;6.43;;
2474;SDS011;1248;48.694;10.160;2023-03-24T08:15:29;10.33;;;6.30;;
2474;SDS011;1248;48.694;10.160;2023-03-24T08:17:56;10.10;;;5.37;;
2474;SDS011;1248;48.694;10.160;2023-03-24T08:20:23;10.17;;;6.60;;
2474;SDS011;1248;48.694;10.160;2023-03-24T08:22:51;8.13;;;6.00;;
2474;SDS011;1248;48.694;10.160;2023-03-24T08:25:19;11.30;;;6.37;;
2474;SDS011;1248;48.694;10.160;2023-03-24T08:27:49;7.93;;;5.60;;
2474;SDS011;1248;48.694;10.160;2023-03-24T08:30:17;8.37;;;5.83;;
2474;SDS011;1248;48.694;10.160;2023-03-24T08:32:46;7.90;;;5.50;;
2474;SDS011;1248;48.694;10.160;2023-03-24T08:35:15;5.07;;;3.50;;
2474;SDS011;1248;48.694;10.160;2023-03-24T08:37:44;5.57;;;3.83;;
2474;SDS011;1248;48.694;10.160;2023-03-24T08:40:12;5.77;;;3.63;;
2474;SDS011;1248;48.694;10.160;2023-03-24T08:42:42;5.83;;;3.10;;
2474;SDS011;1248;48.694;10.160;2023-03-24T08:45:12;6.57;;;4.23;;
2474;SDS011;1248;48.694;10.160;2023-03-24T08:47:39;6.87;;;3.90;;
2474;SDS011;1248;48.694;10.160;2023-03-24T08:50:06;5.03;;;3.87;;
2474;SDS011;1248;48.694;10.160;2023-03-24T08:52:34;3.93;;;3.57;;
2474;SDS011;1248;48.694;10.160;2023-03-24T08:55:01;8.90;;;3.60;;
2474;SDS011;1248;48.694;10.160;2023-03-24T08:57:29;5.53;;;3.10;;
2474;SDS011;1248;48.694;10.160;2023-03-24T08:59:56;5.50;;;3.67;;
2474;SDS011;1248;48.694;10.160;2023-03-24T09:02:24;5.30;;;4.00;;
2474;SDS011;1248;48.694;10.160;2023-03-24T09:04:51;4.63;;;3.70;;
2474;SDS011;1248;48.694;10.160;2023-03-24T09:07:19;4.67;;;3.90;;
2474;SDS011;1248;48.694;10.160;2023-03-24T09:09:46;5.20;;;3.73;;
2474;SDS011;1248;48.694;10.160;2023-03-24T09:12:13;5.40;;;3.73;;
2474;SDS011;1248;48.694;10.160;2023-03-24T09:14:40;6.20;;;4.80;;
2474;SDS011;1248;48.694;10.160;2023-03-24T09:17:07;7.17;;;4.60;;
2474;SDS011;1248;48.694;10.160;2023-03-24T09:19:36;5.63;;;5.03;;
2474;SDS011;1248;48.694;10.160;2023-03-24T09:22:03;5.73;;;4.23;;
2474;SDS011;1248;48.694;10.160;2023-03-24T09:24:30;8.07;;;4.50;;
2474;SDS011;1248;48.694;10.160;2023-03-24T09:26:57;7.47;;;5.70;;
2474;SDS011;1248;48.694;10.160;2023-03-24T09:29:24;6.20;;;5.07;;
2474;SDS011;1248;48.694;10.160;2023-03-24T09:31:51;7.77;;;4.40;;
2474;SDS011;1248;48.694;10.160;2023-03-24T09:34:19;7.07;;;4.90;;
2474;SDS011;1248;48.694;10.160;2023-03-24T09:36:47;5.70;;;5.10;;
2474;SDS011;1248;48.694;10.160;2023-03-24T09:39:15;8.57;;;5.70;;
2474;SDS011;1248;48.694;10.160;2023-03-24T09:41:42;7.60;;;5.67;;
2474;SDS011;1248;48.694;10.160;2023-03-24T09:44:11;8.50;;;5.27;;
2474;SDS011;1248;48.694;10.160;2023-03-24T09:46:48;7.83;;;6.67;;
2474;SDS011;1248;48.694;10.160;2023-03-24T09:49:20;6.00;;;4.80;;
2474;SDS011;1248;48.694;10.160;2023-03-24T09:51:52;9.10;;;7.07;;
2474;SDS011;1248;48.694;10.160;2023-03-24T09:54:22;6.70;;;6.00;;
2474;SDS011;1248;48.694;10.160;2023-03-24T09:56:53;7.77;;;6.20;;
2474;SDS011;1248;48.694;10.160;2023-03-24T09:59:23;7.07;;;6.20;;
2474;SDS011;1248;48.694;10.160;2023-03-24T10:01:56;6.27;;;5.47;;
2474;SDS011;1248;48.694;10.160;2023-03-24T10:04:24;7.67;;;5.23;;
2474;SDS011;1248;48.694;10.160;2023-03-24T10:06:55;6.40;;;5.80;;
2474;SDS011;1248;48.694;10.160;2023-03-24T10:09:25;5.50;;;4.93;;
2474;SDS011;1248;48.694;10.160;2023-03-24T10:11:57;6.43;;;4.77;;
2474;SDS011;1248;48.694;10.160;2023-03-24T10:14:36;6.07;;;5.47;;
2474;SDS011;1248;48.694;10.160;2023-03-24T10:17:11;7.77;;;5.13;;
2474;SDS011;1248;48.694;10.160;2023-03-24T10:19:42;7.47;;;6.10;;
2474;SDS011;1248;48.694;10.160;2023-03-24T10:22:17;6.23;;;4.90;;
2474;SDS011;1248;48.694;10.160;2023-03-24T10:24:48;5.70;;;4.70;;
2474;SDS011;1248;48.694;10.160;2023-03-24T10:27:18;6.20;;;5.00;;
2474;SDS011;1248;48.694;10.160;2023-03-24T10:29:48;5.70;;;4.33;;
2474;SDS011;1248;48.694;10.160;2023-03-24T10:32:18;5.97;;;4.17;;
2474;SDS011;1248;48.694;10.160;2023-03-24T10:34:47;7.80;;;3.63;;
2474;SDS011;1248;48.694;10.160;2023-03-24T10:37:18;3.70;;;3.40;;
2474;SDS011;1248;48.694;10.160;2023-03-24T10:39:45;4.20;;;3.77;;
2474;SDS011;1248;48.694;10.160;2023-03-24T10:42:13;3.60;;;3.30;;
2474;SDS011;1248;48.694;10.160;2023-03-24T10:44:43;3.57;;;2.57;;
2474;SDS011;1248;48.694;10.160;2023-03-24T10:47:11;3.37;;;2.50;;
2474;SDS011;1248;48.694;10.160;2023-03-24T10:49:45;3.50;;;2.80;;
2474;SDS011;1248;48.694;10.160;2023-03-24T10:52:19;2.43;;;1.70;;
2474;SDS011;1248;48.694;10.160;2023-03-24T10:54:55;1.93;;;1.73;;
2474;SDS011;1248;48.694;10.160;2023-03-24T10:57:24;2.27;;;1.60;;
2474;SDS011;1248;48.694;10.160;2023-03-24T10:59:53;2.90;;;1.53;;
2474;SDS011;1248;48.694;10.160;2023-03-24T11:02:24;1.57;;;1.30;;
2474;SDS011;1248;48.694;10.160;2023-03-24T11:04:53;1.60;;;1.50;;
2474;SDS011;1248;48.694;10.160;2023-03-24T11:07:24;3.33;;;1.73;;
2474;SDS011;1248;48.694;10.160;2023-03-24T11:09:57;4.57;;;1.70;;
2474;SDS011;1248;48.694;10.160;2023-03-24T11:12:27;3.60;;;2.20;;
2474;SDS011;1248;48.694;10.160;2023-03-24T11:15:00;1.70;;;1.50;;
2474;SDS011;1248;48.694;10.160;2023-03-24T11:17:28;2.00;;;1.80;;
2474;SDS011;1248;48.694;10.160;2023-03-24T11:19:56;2.60;;;1.70;;
2474;SDS011;1248;48.694;10.160;2023-03-24T11:22:24;1.80;;;1.40;;
2474;SDS011;1248;48.694;10.160;2023-03-24T11:24:54;1.77;;;1.60;;
2474;SDS011;1248;48.694;10.160;2023-03-24T11:27:22;2.30;;;2.10;;
2474;SDS011;1248;48.694;10.160;2023-03-24T11:29:50;6.93;;;2.20;;
2474;SDS011;1248;48.694;10.160;2023-03-24T11:32:21;1.83;;;1.73;;
2474;SDS011;1248;48.694;10.160;2023-03-24T11:34:49;2.60;;;2.10;;
2474;SDS011;1248;48.694;10.160;2023-03-24T11:37:25;2.27;;;1.80;;
2474;SDS011;1248;48.694;10.160;2023-03-24T11:40:04;2.63;;;1.87;;
2474;SDS011;1248;48.694;10.160;2023-03-24T11:42:42;2.77;;;2.30;;
2474;SDS011;1248;48.694;10.160;2023-03-24T11:45:18;3.03;;;2.07;;
2474;SDS011;1248;48.694;10.160;2023-03-24T11:47:47;2.30;;;2.10;;
2474;SDS011;1248;48.694;10.160;2023-03-24T11:50:17;3.00;;;2.23;;
2474;SDS011;1248;48.694;10.160;2023-03-24T11:52:48;2.40;;;2.20;;
2474;SDS011;1248;48.694;10.160;2023-03-24T11:55:20;2.53;;;2.03;;
2474;SDS011;1248;48.694;10.160;2023-03-24T11:57:51;2.30;;;1.83;;
2474;SDS011;1248;48.694;10.160;2023-03-24T12:00:23;2.53;;;2.00;;
2474;SDS011;1248;48.694;10.160;2023-03-24T12:03:10;4.20;;;2.30;;
2474;SDS011;1248;48.694;10.160;2023-03-24T12:05:46;2.77;;;1.90;;
2474;SDS011;1248;48.694;10.160;2023-03-24T12:08:20;2.40;;;2.20;;
2474;SDS011;1248;48.694;10.160;2023-03-24T12:10:58;3.27;;;1.40;;
2474;SDS011;1248;48.694;10.160;2023-03-24T12:13:32;1.70;;;1.40;;
2474;SDS011;1248;48.694;10.160;2023-03-24T12:16:05;1.53;;;1.17;;
2474;SDS011;1248;48.694;10.160;2023-03-24T12:18:41;1.83;;;1.40;;
2474;SDS011;1248;48.694;10.160;2023-03-24T12:21:15;1.50;;;1.20;;
2474;SDS011;1248;48.694;10.160;2023-03-24T12:23:51;2.37;;;1.23;;
2474;SDS011;1248;48.694;10.160;2023-03-24T12:26:23;1.20;;;1.00;;
2474;SDS011;1248;48.694;10.160;2023-03-24T12:28:54;2.20;;;1.00;;
2474;SDS011;1248;48.694;10.160;2023-03-24T12:31:50;1.60;;;1.10;;
2474;SDS011;1248;48.694;10.160;2023-03-24T12:34:37;1.40;;;1.13;;
2474;SDS011;1248;48.694;10.160;2023-03-24T12:37:12;1.83;;;1.10;;
2474;SDS011;1248;48.694;10.160;2023-03-24T12:39:48;1.30;;;0.90;;
2474;SDS011;1248;48.694;10.160;2023-03-24T12:42:19;8.33;;;1.10;;
2474;SDS011;1248;48.694;10.160;2023-03-24T12:45:01;1.57;;;0.90;;
2474;SDS011;1248;48.694;10.160;2023-03-24T12:47:43;1.30;;;0.90;;
2474;SDS011;1248;48.694;10.160;2023-03-24T12:50:22;1.20;;;1.00;;
2474;SDS011;1248;48.694;10.160;2023-03-24T12:52:58;1.07;;;0.80;;
2474;SDS011;1248;48.694;10.160;2023-03-24T12:55:34;1.07;;;0.80;;
2474;SDS011;1248;48.694;10.160;2023-03-24T12:58:08;1.10;;;0.97;;
2474;SDS011;1248;48.694;10.160;2023-03-24T13:00:39;1.00;;;0.80;;
2474;SDS011;1248;48.694;10.160;2023-03-24T13:03:10;0.90;;;0.80;;
2474;SDS011;1248;48.694;10.160;2023-03-24T13:05:40;2.83;;;0.90;;
2474;SDS011;1248;48.694;10.160;2023-03-24T13:08:10;1.67;;;0.90;;
2474;SDS011;1248;48.694;10.160;2023-03-24T13:10:42;1.60;;;0.90;;
2474;SDS011;1248;48.694;10.160;2023-03-24T13:13:12;1.20;;;0.90;;
2474;SDS011;1248;48.694;10.160;2023-03-24T13:15:44;9.77;;;1.47;;
2474;SDS011;1248;48.694;10.160;2023-03-24T13:18:17;2.60;;;1.00;;
2474;SDS011;1248;48.694;10.160;2023-03-24T13:20:51;1.10;;;0.90;;
2474;SDS011;1248;48.694;10.160;2023-03-24T13:23:24;2.17;;;1.57;;
2474;SDS011;1248;48.694;10.160;2023-03-24T13:25:59;1.10;;;0.90;;
2474;SDS011;1248;48.694;10.160;2023-03-24T13:28:33;1.10;;;0.80;;
2474;SDS011;1248;48.694;10.160;2023-03-24T13:31:04;2.10;;;0.80;;
2474;SDS011;1248;48.694;10.160;2023-03-24T13:33:33;1.77;;;0.80;;
2474;SDS011;1248;48.694;10.160;2023-03-24T13:36:10;1.07;;;0.80;;
2474;SDS011;1248;48.694;10.160;2023-03-24T13:38:48;1.10;;;0.90;;
2474;SDS011;1248;48.694;10.160;2023-03-24T13:41:19;1.57;;;1.00;;
2474;SDS011;1248;48.694;10.160;2023-03-24T13:43:49;2.07;;;0.80;;
2474;SDS011;1248;48.694;10.160;2023-03-24T13:46:17;0.90;;;0.80;;
2474;SDS011;1248;48.694;10.160;2023-03-24T13:48:45;1.10;;;0.77;;
2474;SDS011;1248;48.694;10.160;2023-03-24T13:51:14;0.90;;;0.70;;
2474;SDS011;1248;48.694;10.160;2023-03-24T13:53:43;2.20;;;1.07;;
2474;SDS011;1248;48.694;10.160;2023-03-24T13:56:11;2.87;;;0.90;;
2474;SDS011;1248;48.694;10.160;2023-03-24T13:58:47;1.70;;;0.90;;
2474;SDS011;1248;48.694;10.160;2023-03-24T14:01:17;0.93;;;0.77;;
2474;SDS011;1248;48.694;10.160;2023-03-24T14:06:46;1.10;;;0.80;;
2474;SDS011;1248;48.694;10.160;2023-03-24T14:09:15;1.70;;;1.20;;
2474;SDS011;1248;48.694;10.160;2023-03-24T14:11:44;1.10;;;0.80;;
2474;SDS011;1248;48.694;10.160;2023-03-24T14:14:18;1.07;;;0.80;;
2474;SDS011;1248;48.694;10.160;2023-03-24T14:16:51;0.90;;;0.73;;
2474;SDS011;1248;48.694;10.160;2023-03-24T14:19:29;1.10;;;1.00;;
2474;SDS011;1248;48.694;10.160;2023-03-24T14:21:57;1.10;;;0.87;;
2474;SDS011;1248;48.694;10.160;2023-03-24T14:24:29;1.30;;;1.00;;
2474;SDS011;1248;48.694;10.160;2023-03-24T14:26:57;2.00;;;1.03;;
2474;SDS011;1248;48.694;10.160;2023-03-24T14:29:36;1.00;;;0.80;;
2474;SDS011;1248;48.694;10.160;2023-03-24T14:32:05;2.23;;;0.90;;
2474;SDS011;1248;48.694;10.160;2023-03-24T14:34:32;1.30;;;1.00;;
2474;SDS011;1248;48.694;10.160;2023-03-24T14:37:02;1.20;;;1.00;;
2474;SDS011;1248;48.694;10.160;2023-03-24T14:39:33;1.23;;;0.77;;
2474;SDS011;1248;48.694;10.160;2023-03-24T14:42:14;1.00;;;0.80;;
2474;SDS011;1248;48.694;10.160;2023-03-24T14:44:55;2.10;;;0.90;;
2474;SDS011;1248;48.694;10.160;2023-03-24T14:47:23;1.37;;;0.90;;
2474;SDS011;1248;48.694;10.160;2023-03-24T14:49:52;2.17;;;0.97;;
2474;SDS011;1248;48.694;10.160;2023-03-24T14:52:21;1.10;;;0.80;;
2474;SDS011;1248;48.694;10.160;2023-03-24T14:54:52;1.30;;;1.10;;
2474;SDS011;1248;48.694;10.160;2023-03-24T14:57:21;1.20;;;0.83;;
2474;SDS011;1248;48.694;10.160;2023-03-24T14:59:51;1.10;;;0.97;;
2474;SDS011;1248;48.694;10.160;2023-03-24T15:02:28;1.70;;;1.00;;
2474;SDS011;1248;48.694;10.160;2023-03-24T15:05:14;1.93;;;1.30;;
2474;SDS011;1248;48.694;10.160;2023-03-24T15:07:57;2.50;;;1.00;;
2474;SDS011;1248;48.694;10.160;2023-03-24T15:10:30;2.70;;;1.00;;
2474;SDS011;1248;48.694;10.160;2023-03-24T15:12:59;2.03;;;1.00;;
2474;SDS011;1248;48.694;10.160;2023-03-24T15:15:27;3.67;;;0.90;;
2474;SDS011;1248;48.694;10.160;2023-03-24T15:17:55;1.73;;;1.00;;
2474;SDS011;1248;48.694;10.160;2023-03-24T15:20:22;2.00;;;1.00;;
2474;SDS011;1248;48.694;10.160;2023-03-24T15:22:51;1.27;;;1.00;;
2474;SDS011;1248;48.694;10.160;2023-03-24T15:25:23;1.00;;;0.90;;
2474;SDS011;1248;48.694;10.160;2023-03-24T15:27:52;1.20;;;0.80;;
2474;SDS011;1248;48.694;10.160;2023-03-24T15:30:20;1.83;;;1.00;;